sensor_id;sensor_type;location;lat;lon;timestamp;P1;durP1;ratioP1;P2;durP2;ratioP2
25511;SDS011;13414;44.534;18.700;2023-02-15T00:01:34;322.70;;;195.13;;
25511;SDS011;13414;44.534;18.700;2023-02-15T00:04:02;331.75;;;203.57;;
25511;SDS011;13414;44.534;18.700;2023-02-15T00:06:32;371.63;;;230.07;;
25511;SDS011;13414;44.534;18.700;2023-02-15T00:09:00;449.58;;;264.58;;
25511;SDS011;13414;44.534;18.700;2023-02-15T00:11:28;420.55;;;255.02;;
25511;SDS011;13414;44.534;18.700;2023-02-15T00:14:15;399.38;;;236.80;;
25511;SDS011;13414;44.534;18.700;2023-02-15T00:16:45;361.23;;;211.23;;
25511;SDS011;13414;44.534;18.700;2023-02-15T00:19:14;321.60;;;180.90;;
25511;SDS011;13414;44.534;18.700;2023-02-15T00:21:44;306.80;;;167.57;;
25511;SDS011;13414;44.534;18.700;2023-02-15T00:24:13;274.30;;;147.02;;
25511;SDS011;13414;44.534;18.700;2023-02-15T00:26:42;233.48;;;126.95;;
25511;SDS011;13414;44.534;18.700;2023-02-15T00:29:10;224.05;;;121.72;;
25511;SDS011;13414;44.534;18.700;2023-02-15T00:31:40;202.18;;;113.95;;
25511;SDS011;13414;44.534;18.700;2023-02-15T00:34:10;193.95;;;107.40;;
25511;SDS011;13414;44.534;18.700;2023-02-15T00:36:40;198.88;;;110.50;;
25511;SDS011;13414;44.534;18.700;2023-02-15T00:39:09;188.60;;;106.20;;
25511;SDS011;13414;44.534;18.700;2023-02-15T00:41:37;213.45;;;119.38;;
25511;SDS011;13414;44.534;18.700;2023-02-15T00:44:05;212.45;;;119.78;;
25511;SDS011;13414;44.534;18.700;2023-02-15T00:46:33;186.43;;;106.38;;
25511;SDS011;13414;44.534;18.700;2023-02-15T00:49:00;194.90;;;105.88;;
25511;SDS011;13414;44.534;18.700;2023-02-15T00:51:28;184.35;;;105.53;;
25511;SDS011;13414;44.534;18.700;2023-02-15T00:53:55;193.75;;;106.80;;
25511;SDS011;13414;44.534;18.700;2023-02-15T00:56:24;201.32;;;113.85;;
25511;SDS011;13414;44.534;18.700;2023-02-15T00:58:53;188.00;;;103.63;;
25511;SDS011;13414;44.534;18.700;2023-02-15T01:01:21;161.95;;;93.32;;
25511;SDS011;13414;44.534;18.700;2023-02-15T01:03:50;146.35;;;83.82;;
25511;SDS011;13414;44.534;18.700;2023-02-15T01:06:18;182.23;;;102.53;;
25511;SDS011;13414;44.534;18.700;2023-02-15T01:08:46;155.95;;;83.97;;
25511;SDS011;13414;44.534;18.700;2023-02-15T01:11:15;131.02;;;75.80;;
25511;SDS011;13414;44.534;18.700;2023-02-15T01:13:48;143.15;;;80.40;;
25511;SDS011;13414;44.534;18.700;2023-02-15T01:16:17;132.13;;;74.00;;
25511;SDS011;13414;44.534;18.700;2023-02-15T01:18:44;125.65;;;67.85;;
25511;SDS011;13414;44.534;18.700;2023-02-15T01:21:15;125.25;;;72.55;;
25511;SDS011;13414;44.534;18.700;2023-02-15T01:23:44;125.90;;;69.30;;
25511;SDS011;13414;44.534;18.700;2023-02-15T01:26:11;142.02;;;79.97;;
25511;SDS011;13414;44.534;18.700;2023-02-15T01:28:39;147.85;;;82.43;;
25511;SDS011;13414;44.534;18.700;2023-02-15T01:31:09;138.93;;;79.75;;
25511;SDS011;13414;44.534;18.700;2023-02-15T01:33:38;151.15;;;84.93;;
25511;SDS011;13414;44.534;18.700;2023-02-15T01:36:05;148.30;;;84.43;;
25511;SDS011;13414;44.534;18.700;2023-02-15T01:38:33;140.00;;;80.68;;
25511;SDS011;13414;44.534;18.700;2023-02-15T01:41:01;141.45;;;77.50;;
25511;SDS011;13414;44.534;18.700;2023-02-15T01:43:49;143.98;;;80.57;;
25511;SDS011;13414;44.534;18.700;2023-02-15T01:46:20;140.15;;;77.55;;
25511;SDS011;13414;44.534;18.700;2023-02-15T01:48:52;130.82;;;76.28;;
25511;SDS011;13414;44.534;18.700;2023-02-15T01:51:23;128.57;;;76.30;;
25511;SDS011;13414;44.534;18.700;2023-02-15T01:53:57;138.85;;;77.90;;
25511;SDS011;13414;44.534;18.700;2023-02-15T01:56:29;129.80;;;74.53;;
25511;SDS011;13414;44.534;18.700;2023-02-15T01:59:02;126.90;;;72.50;;
25511;SDS011;13414;44.534;18.700;2023-02-15T02:01:34;114.22;;;66.72;;
25511;SDS011;13414;44.534;18.700;2023-02-15T02:04:04;116.85;;;67.07;;
25511;SDS011;13414;44.534;18.700;2023-02-15T02:06:37;114.22;;;65.65;;
25511;SDS011;13414;44.534;18.700;2023-02-15T02:09:06;110.50;;;62.40;;
25511;SDS011;13414;44.534;18.700;2023-02-15T02:11:35;114.80;;;67.70;;
25511;SDS011;13414;44.534;18.700;2023-02-15T02:14:04;114.78;;;69.65;;
25511;SDS011;13414;44.534;18.700;2023-02-15T02:16:37;114.90;;;71.10;;
25511;SDS011;13414;44.534;18.700;2023-02-15T02:19:19;115.35;;;74.53;;
25511;SDS011;13414;44.534;18.700;2023-02-15T02:22:33;120.25;;;73.55;;
25511;SDS011;13414;44.534;18.700;2023-02-15T02:25:23;109.90;;;68.20;;
25511;SDS011;13414;44.534;18.700;2023-02-15T02:28:21;107.45;;;65.38;;
25511;SDS011;13414;44.534;18.700;2023-02-15T02:31:14;117.20;;;74.35;;
25511;SDS011;13414;44.534;18.700;2023-02-15T02:33:58;116.88;;;71.95;;
25511;SDS011;13414;44.534;18.700;2023-02-15T02:36:31;119.50;;;74.60;;
25511;SDS011;13414;44.534;18.700;2023-02-15T02:41:37;153.55;;;91.32;;
25511;SDS011;13414;44.534;18.700;2023-02-15T02:44:11;141.55;;;86.63;;
25511;SDS011;13414;44.534;18.700;2023-02-15T02:46:45;138.63;;;84.38;;
25511;SDS011;13414;44.534;18.700;2023-02-15T02:49:30;135.25;;;78.43;;
25511;SDS011;13414;44.534;18.700;2023-02-15T02:51:59;127.22;;;72.57;;
25511;SDS011;13414;44.534;18.700;2023-02-15T02:54:27;138.05;;;75.97;;
25511;SDS011;13414;44.534;18.700;2023-02-15T02:56:55;127.10;;;75.25;;
25511;SDS011;13414;44.534;18.700;2023-02-15T02:59:26;126.47;;;69.40;;
25511;SDS011;13414;44.534;18.700;2023-02-15T03:01:59;123.13;;;69.30;;
25511;SDS011;13414;44.534;18.700;2023-02-15T03:04:35;114.82;;;66.80;;
25511;SDS011;13414;44.534;18.700;2023-02-15T03:07:04;115.78;;;67.72;;
25511;SDS011;13414;44.534;18.700;2023-02-15T03:09:35;124.15;;;67.03;;
25511;SDS011;13414;44.534;18.700;2023-02-15T03:12:08;115.07;;;64.45;;
25511;SDS011;13414;44.534;18.700;2023-02-15T03:14:44;106.97;;;64.68;;
25511;SDS011;13414;44.534;18.700;2023-02-15T03:17:15;103.55;;;61.25;;
25511;SDS011;13414;44.534;18.700;2023-02-15T03:19:47;101.00;;;57.17;;
25511;SDS011;13414;44.534;18.700;2023-02-15T03:22:20;99.45;;;59.28;;
25511;SDS011;13414;44.534;18.700;2023-02-15T03:24:51;101.22;;;57.03;;
25511;SDS011;13414;44.534;18.700;2023-02-15T03:27:24;99.15;;;57.17;;
25511;SDS011;13414;44.534;18.700;2023-02-15T03:29:56;91.43;;;55.80;;
25511;SDS011;13414;44.534;18.700;2023-02-15T03:32:25;97.63;;;53.08;;
25511;SDS011;13414;44.534;18.700;2023-02-15T03:34:57;102.05;;;57.83;;
25511;SDS011;13414;44.534;18.700;2023-02-15T03:37:26;102.90;;;59.35;;
25511;SDS011;13414;44.534;18.700;2023-02-15T03:39:59;99.65;;;56.28;;
25511;SDS011;13414;44.534;18.700;2023-02-15T03:42:51;102.88;;;58.85;;
25511;SDS011;13414;44.534;18.700;2023-02-15T03:45:28;101.50;;;57.10;;
25511;SDS011;13414;44.534;18.700;2023-02-15T03:47:57;107.72;;;62.28;;
25511;SDS011;13414;44.534;18.700;2023-02-15T03:50:29;103.22;;;60.95;;
25511;SDS011;13414;44.534;18.700;2023-02-15T03:53:16;107.82;;;60.80;;
25511;SDS011;13414;44.534;18.700;2023-02-15T03:55:46;102.10;;;59.15;;
25511;SDS011;13414;44.534;18.700;2023-02-15T03:58:14;84.75;;;50.72;;
25511;SDS011;13414;44.534;18.700;2023-02-15T04:01:00;97.93;;;57.92;;
25511;SDS011;13414;44.534;18.700;2023-02-15T04:03:49;95.57;;;57.33;;
25511;SDS011;13414;44.534;18.700;2023-02-15T04:06:23;92.32;;;53.17;;
25511;SDS011;13414;44.534;18.700;2023-02-15T04:08:50;87.78;;;51.05;;
25511;SDS011;13414;44.534;18.700;2023-02-15T04:11:35;82.38;;;49.90;;
25511;SDS011;13414;44.534;18.700;2023-02-15T04:14:02;87.55;;;50.80;;
25511;SDS011;13414;44.534;18.700;2023-02-15T04:16:50;105.07;;;60.95;;
25511;SDS011;13414;44.534;18.700;2023-02-15T04:19:16;105.97;;;61.38;;
25511;SDS011;13414;44.534;18.700;2023-02-15T04:22:02;112.80;;;63.33;;
25511;SDS011;13414;44.534;18.700;2023-02-15T04:24:47;154.45;;;102.30;;
25511;SDS011;13414;44.534;18.700;2023-02-15T04:27:32;99.50;;;58.30;;
25511;SDS011;13414;44.534;18.700;2023-02-15T04:29:59;107.47;;;66.07;;
25511;SDS011;13414;44.534;18.700;2023-02-15T04:32:27;92.22;;;53.75;;
25511;SDS011;13414;44.534;18.700;2023-02-15T04:34:54;85.68;;;50.20;;
25511;SDS011;13414;44.534;18.700;2023-02-15T04:37:23;101.10;;;57.70;;
25511;SDS011;13414;44.534;18.700;2023-02-15T04:39:50;99.97;;;58.22;;
25511;SDS011;13414;44.534;18.700;2023-02-15T04:42:18;98.40;;;56.13;;
25511;SDS011;13414;44.534;18.700;2023-02-15T04:44:45;114.47;;;68.40;;
25511;SDS011;13414;44.534;18.700;2023-02-15T04:47:13;90.55;;;54.67;;
25511;SDS011;13414;44.534;18.700;2023-02-15T04:49:40;91.75;;;53.95;;
25511;SDS011;13414;44.534;18.700;2023-02-15T04:52:07;92.63;;;54.00;;
25511;SDS011;13414;44.534;18.700;2023-02-15T04:54:36;153.10;;;81.85;;
25511;SDS011;13414;44.534;18.700;2023-02-15T04:57:04;141.32;;;79.22;;
25511;SDS011;13414;44.534;18.700;2023-02-15T04:59:32;126.30;;;75.22;;
25511;SDS011;13414;44.534;18.700;2023-02-15T05:01:59;125.65;;;74.63;;
25511;SDS011;13414;44.534;18.700;2023-02-15T05:04:27;132.10;;;75.22;;
25511;SDS011;13414;44.534;18.700;2023-02-15T05:06:54;130.13;;;77.22;;
25511;SDS011;13414;44.534;18.700;2023-02-15T05:09:22;136.43;;;85.95;;
25511;SDS011;13414;44.534;18.700;2023-02-15T05:11:50;125.03;;;81.05;;
25511;SDS011;13414;44.534;18.700;2023-02-15T05:14:18;122.32;;;70.57;;
25511;SDS011;13414;44.534;18.700;2023-02-15T05:16:46;106.32;;;65.38;;
25511;SDS011;13414;44.534;18.700;2023-02-15T05:19:13;101.82;;;61.95;;
25511;SDS011;13414;44.534;18.700;2023-02-15T05:21:40;101.70;;;60.70;;
25511;SDS011;13414;44.534;18.700;2023-02-15T05:24:08;120.78;;;74.85;;
25511;SDS011;13414;44.534;18.700;2023-02-15T05:26:50;100.10;;;62.17;;
25511;SDS011;13414;44.534;18.700;2023-02-15T05:29:35;94.43;;;59.20;;
25511;SDS011;13414;44.534;18.700;2023-02-15T05:32:02;94.72;;;58.85;;
25511;SDS011;13414;44.534;18.700;2023-02-15T05:34:30;108.75;;;67.72;;
25511;SDS011;13414;44.534;18.700;2023-02-15T05:36:57;97.05;;;60.10;;
25511;SDS011;13414;44.534;18.700;2023-02-15T05:39:25;97.32;;;58.22;;
25511;SDS011;13414;44.534;18.700;2023-02-15T05:41:54;112.55;;;64.65;;
25511;SDS011;13414;44.534;18.700;2023-02-15T05:44:24;109.40;;;64.75;;
25511;SDS011;13414;44.534;18.700;2023-02-15T05:46:52;141.30;;;81.80;;
25511;SDS011;13414;44.534;18.700;2023-02-15T05:49:19;138.30;;;78.97;;
25511;SDS011;13414;44.534;18.700;2023-02-15T05:51:47;127.45;;;73.88;;
25511;SDS011;13414;44.534;18.700;2023-02-15T05:54:15;139.50;;;84.07;;
25511;SDS011;13414;44.534;18.700;2023-02-15T05:56:43;128.38;;;76.05;;
25511;SDS011;13414;44.534;18.700;2023-02-15T05:59:11;120.97;;;71.53;;
25511;SDS011;13414;44.534;18.700;2023-02-15T06:01:39;122.22;;;69.53;;
25511;SDS011;13414;44.534;18.700;2023-02-15T06:04:06;134.45;;;72.50;;
25511;SDS011;13414;44.534;18.700;2023-02-15T06:06:34;123.07;;;72.10;;
25511;SDS011;13414;44.534;18.700;2023-02-15T06:09:02;110.75;;;62.25;;
25511;SDS011;13414;44.534;18.700;2023-02-15T06:11:29;118.15;;;67.70;;
25511;SDS011;13414;44.534;18.700;2023-02-15T06:13:57;116.43;;;65.68;;
25511;SDS011;13414;44.534;18.700;2023-02-15T06:16:25;155.40;;;87.90;;
25511;SDS011;13414;44.534;18.700;2023-02-15T06:18:53;180.85;;;99.32;;
25511;SDS011;13414;44.534;18.700;2023-02-15T06:21:20;176.63;;;98.88;;
25511;SDS011;13414;44.534;18.700;2023-02-15T06:23:49;168.90;;;94.32;;
25511;SDS011;13414;44.534;18.700;2023-02-15T06:26:16;171.80;;;97.10;;
25511;SDS011;13414;44.534;18.700;2023-02-15T06:28:44;154.73;;;90.05;;
25511;SDS011;13414;44.534;18.700;2023-02-15T06:31:11;164.25;;;92.63;;
25511;SDS011;13414;44.534;18.700;2023-02-15T06:33:40;161.52;;;92.43;;
25511;SDS011;13414;44.534;18.700;2023-02-15T06:36:07;187.52;;;107.00;;
25511;SDS011;13414;44.534;18.700;2023-02-15T06:38:35;191.77;;;108.38;;
25511;SDS011;13414;44.534;18.700;2023-02-15T06:41:02;213.75;;;116.43;;
25511;SDS011;13414;44.534;18.700;2023-02-15T06:43:29;340.80;;;155.80;;
25511;SDS011;13414;44.534;18.700;2023-02-15T06:45:57;368.10;;;166.52;;
25511;SDS011;13414;44.534;18.700;2023-02-15T06:48:25;279.75;;;137.43;;
25511;SDS011;13414;44.534;18.700;2023-02-15T06:50:54;364.10;;;173.45;;
25511;SDS011;13414;44.534;18.700;2023-02-15T06:53:21;395.50;;;185.90;;
25511;SDS011;13414;44.534;18.700;2023-02-15T06:55:49;441.05;;;203.65;;
25511;SDS011;13414;44.534;18.700;2023-02-15T06:58:16;323.88;;;166.73;;
25511;SDS011;13414;44.534;18.700;2023-02-15T07:00:43;272.10;;;146.68;;
25511;SDS011;13414;44.534;18.700;2023-02-15T07:03:12;279.48;;;146.05;;
25511;SDS011;13414;44.534;18.700;2023-02-15T07:05:40;274.48;;;139.73;;
25511;SDS011;13414;44.534;18.700;2023-02-15T07:08:10;348.33;;;170.75;;
25511;SDS011;13414;44.534;18.700;2023-02-15T07:10:37;291.02;;;147.48;;
25511;SDS011;13414;44.534;18.700;2023-02-15T07:13:05;266.05;;;139.60;;
25511;SDS011;13414;44.534;18.700;2023-02-15T07:15:31;224.55;;;115.13;;
25511;SDS011;13414;44.534;18.700;2023-02-15T07:17:58;218.82;;;110.80;;
25511;SDS011;13414;44.534;18.700;2023-02-15T07:20:26;250.07;;;127.53;;
25511;SDS011;13414;44.534;18.700;2023-02-15T07:22:54;186.23;;;97.43;;
25511;SDS011;13414;44.534;18.700;2023-02-15T07:25:23;187.45;;;102.47;;
25511;SDS011;13414;44.534;18.700;2023-02-15T07:27:54;155.05;;;86.38;;
25511;SDS011;13414;44.534;18.700;2023-02-15T07:30:22;112.70;;;65.53;;
25511;SDS011;13414;44.534;18.700;2023-02-15T07:32:50;151.55;;;86.13;;
25511;SDS011;13414;44.534;18.700;2023-02-15T07:35:53;151.32;;;86.63;;
25511;SDS011;13414;44.534;18.700;2023-02-15T07:38:23;155.18;;;88.90;;
25511;SDS011;13414;44.534;18.700;2023-02-15T07:40:56;176.90;;;103.57;;
25511;SDS011;13414;44.534;18.700;2023-02-15T07:43:28;154.15;;;91.57;;
25511;SDS011;13414;44.534;18.700;2023-02-15T07:45:58;133.82;;;83.25;;
25511;SDS011;13414;44.534;18.700;2023-02-15T07:48:26;143.45;;;87.70;;
25511;SDS011;13414;44.534;18.700;2023-02-15T07:50:56;136.55;;;84.90;;
25511;SDS011;13414;44.534;18.700;2023-02-15T07:53:25;141.70;;;84.57;;
25511;SDS011;13414;44.534;18.700;2023-02-15T07:55:54;135.95;;;82.30;;
25511;SDS011;13414;44.534;18.700;2023-02-15T07:58:25;138.35;;;84.47;;
25511;SDS011;13414;44.534;18.700;2023-02-15T08:01:14;135.90;;;84.63;;
25511;SDS011;13414;44.534;18.700;2023-02-15T08:03:43;139.88;;;87.88;;
25511;SDS011;13414;44.534;18.700;2023-02-15T08:06:10;126.78;;;78.70;;
25511;SDS011;13414;44.534;18.700;2023-02-15T08:08:38;128.88;;;77.65;;
25511;SDS011;13414;44.534;18.700;2023-02-15T08:11:14;139.85;;;82.03;;
25511;SDS011;13414;44.534;18.700;2023-02-15T08:13:52;122.63;;;74.72;;
25511;SDS011;13414;44.534;18.700;2023-02-15T08:16:23;121.45;;;72.65;;
25511;SDS011;13414;44.534;18.700;2023-02-15T08:18:54;103.75;;;66.80;;
25511;SDS011;13414;44.534;18.700;2023-02-15T08:21:25;81.63;;;50.75;;
25511;SDS011;13414;44.534;18.700;2023-02-15T08:23:54;71.72;;;46.20;;
25511;SDS011;13414;44.534;18.700;2023-02-15T08:26:27;66.85;;;43.67;;
25511;SDS011;13414;44.534;18.700;2023-02-15T08:28:56;65.38;;;42.03;;
25511;SDS011;13414;44.534;18.700;2023-02-15T08:31:25;56.72;;;36.83;;
25511;SDS011;13414;44.534;18.700;2023-02-15T08:33:57;58.72;;;37.83;;
25511;SDS011;13414;44.534;18.700;2023-02-15T08:36:26;44.35;;;29.52;;
25511;SDS011;13414;44.534;18.700;2023-02-15T08:39:11;52.30;;;29.90;;
25511;SDS011;13414;44.534;18.700;2023-02-15T08:41:55;45.10;;;29.92;;
25511;SDS011;13414;44.534;18.700;2023-02-15T08:44:48;33.55;;;23.63;;
25511;SDS011;13414;44.534;18.700;2023-02-15T08:47:28;42.55;;;28.00;;
25511;SDS011;13414;44.534;18.700;2023-02-15T08:49:56;38.47;;;26.83;;
25511;SDS011;13414;44.534;18.700;2023-02-15T08:52:23;41.67;;;27.23;;
25511;SDS011;13414;44.534;18.700;2023-02-15T08:54:51;40.20;;;27.10;;
25511;SDS011;13414;44.534;18.700;2023-02-15T08:57:21;44.08;;;28.70;;
25511;SDS011;13414;44.534;18.700;2023-02-15T08:59:48;46.65;;;28.88;;
25511;SDS011;13414;44.534;18.700;2023-02-15T09:02:16;43.17;;;27.45;;
25511;SDS011;13414;44.534;18.700;2023-02-15T09:04:44;38.72;;;25.70;;
25511;SDS011;13414;44.534;18.700;2023-02-15T09:07:12;32.50;;;23.42;;
25511;SDS011;13414;44.534;18.700;2023-02-15T09:09:40;37.72;;;25.38;;
25511;SDS011;13414;44.534;18.700;2023-02-15T09:12:15;39.50;;;27.17;;
25511;SDS011;13414;44.534;18.700;2023-02-15T09:14:45;45.17;;;24.90;;
25511;SDS011;13414;44.534;18.700;2023-02-15T09:17:13;37.97;;;24.08;;
25511;SDS011;13414;44.534;18.700;2023-02-15T09:19:44;33.25;;;22.35;;
25511;SDS011;13414;44.534;18.700;2023-02-15T09:22:11;33.78;;;21.70;;
25511;SDS011;13414;44.534;18.700;2023-02-15T09:24:39;33.15;;;21.88;;
25511;SDS011;13414;44.534;18.700;2023-02-15T09:27:07;29.85;;;21.40;;
25511;SDS011;13414;44.534;18.700;2023-02-15T09:29:36;31.08;;;21.45;;
25511;SDS011;13414;44.534;18.700;2023-02-15T09:32:06;34.17;;;22.55;;
25511;SDS011;13414;44.534;18.700;2023-02-15T09:34:34;32.13;;;21.23;;
25511;SDS011;13414;44.534;18.700;2023-02-15T09:37:01;36.97;;;24.17;;
25511;SDS011;13414;44.534;18.700;2023-02-15T09:39:29;36.42;;;22.60;;
25511;SDS011;13414;44.534;18.700;2023-02-15T09:45:05;34.88;;;22.77;;
25511;SDS011;13414;44.534;18.700;2023-02-15T09:47:50;38.22;;;24.92;;
25511;SDS011;13414;44.534;18.700;2023-02-15T09:50:38;38.42;;;24.73;;
25511;SDS011;13414;44.534;18.700;2023-02-15T09:53:24;40.10;;;24.42;;
25511;SDS011;13414;44.534;18.700;2023-02-15T09:56:05;41.03;;;25.05;;
25511;SDS011;13414;44.534;18.700;2023-02-15T09:58:41;41.42;;;24.38;;
25511;SDS011;13414;44.534;18.700;2023-02-15T10:01:24;33.20;;;22.48;;
25511;SDS011;13414;44.534;18.700;2023-02-15T10:04:14;35.47;;;24.02;;
25511;SDS011;13414;44.534;18.700;2023-02-15T10:06:53;35.83;;;24.52;;
25511;SDS011;13414;44.534;18.700;2023-02-15T10:09:43;33.25;;;23.33;;
25511;SDS011;13414;44.534;18.700;2023-02-15T10:12:22;38.55;;;23.92;;
25511;SDS011;13414;44.534;18.700;2023-02-15T10:15:06;34.40;;;24.27;;
25511;SDS011;13414;44.534;18.700;2023-02-15T10:17:54;33.13;;;23.48;;
25511;SDS011;13414;44.534;18.700;2023-02-15T10:20:42;32.70;;;22.80;;
25511;SDS011;13414;44.534;18.700;2023-02-15T10:23:28;36.88;;;24.42;;
25511;SDS011;13414;44.534;18.700;2023-02-15T10:26:15;30.70;;;22.42;;
25511;SDS011;13414;44.534;18.700;2023-02-15T10:28:48;37.17;;;23.35;;
25511;SDS011;13414;44.534;18.700;2023-02-15T10:31:21;35.63;;;24.38;;
25511;SDS011;13414;44.534;18.700;2023-02-15T10:33:55;38.40;;;23.40;;
25511;SDS011;13414;44.534;18.700;2023-02-15T10:36:44;36.65;;;24.73;;
25511;SDS011;13414;44.534;18.700;2023-02-15T10:39:37;41.00;;;27.33;;
25511;SDS011;13414;44.534;18.700;2023-02-15T10:42:14;36.83;;;24.50;;
25511;SDS011;13414;44.534;18.700;2023-02-15T10:44:57;31.77;;;20.98;;
25511;SDS011;13414;44.534;18.700;2023-02-15T10:47:41;33.95;;;22.75;;
25511;SDS011;13414;44.534;18.700;2023-02-15T10:50:26;32.15;;;23.35;;
25511;SDS011;13414;44.534;18.700;2023-02-15T10:55:55;33.85;;;23.83;;
25511;SDS011;13414;44.534;18.700;2023-02-15T10:58:36;32.83;;;21.80;;
25511;SDS011;13414;44.534;18.700;2023-02-15T11:01:18;32.58;;;22.40;;
25511;SDS011;13414;44.534;18.700;2023-02-15T11:06:54;29.42;;;21.48;;
25511;SDS011;13414;44.534;18.700;2023-02-15T11:09:29;37.15;;;23.88;;
25511;SDS011;13414;44.534;18.700;2023-02-15T11:12:04;29.63;;;20.90;;
25511;SDS011;13414;44.534;18.700;2023-02-15T11:14:51;33.42;;;20.75;;
25511;SDS011;13414;44.534;18.700;2023-02-15T11:17:24;29.73;;;21.60;;
25511;SDS011;13414;44.534;18.700;2023-02-15T11:19:56;33.70;;;22.42;;
25511;SDS011;13414;44.534;18.700;2023-02-15T11:22:29;56.85;;;37.15;;
25511;SDS011;13414;44.534;18.700;2023-02-15T11:25:11;27.38;;;20.10;;
25511;SDS011;13414;44.534;18.700;2023-02-15T11:27:45;31.27;;;19.33;;
25511;SDS011;13414;44.534;18.700;2023-02-15T11:30:17;33.17;;;23.27;;
25511;SDS011;13414;44.534;18.700;2023-02-15T11:32:48;29.58;;;21.30;;
25511;SDS011;13414;44.534;18.700;2023-02-15T11:35:19;28.35;;;19.67;;
25511;SDS011;13414;44.534;18.700;2023-02-15T11:37:53;26.30;;;18.08;;
25511;SDS011;13414;44.534;18.700;2023-02-15T11:40:27;29.42;;;20.33;;
25511;SDS011;13414;44.534;18.700;2023-02-15T11:42:57;27.38;;;18.55;;
25511;SDS011;13414;44.534;18.700;2023-02-15T11:45:29;28.40;;;18.52;;
25511;SDS011;13414;44.534;18.700;2023-02-15T11:47:58;28.52;;;19.33;;
25511;SDS011;13414;44.534;18.700;2023-02-15T11:50:29;30.98;;;20.70;;
25511;SDS011;13414;44.534;18.700;2023-02-15T11:52:59;24.85;;;16.92;;
25511;SDS011;13414;44.534;18.700;2023-02-15T11:55:31;25.83;;;17.88;;
25511;SDS011;13414;44.534;18.700;2023-02-15T11:58:01;28.45;;;19.45;;
25511;SDS011;13414;44.534;18.700;2023-02-15T12:00:35;25.80;;;19.60;;
25511;SDS011;13414;44.534;18.700;2023-02-15T12:03:11;26.35;;;18.58;;
25511;SDS011;13414;44.534;18.700;2023-02-15T12:05:44;26.17;;;17.45;;
25511;SDS011;13414;44.534;18.700;2023-02-15T12:08:15;24.30;;;16.98;;
25511;SDS011;13414;44.534;18.700;2023-02-15T12:10:51;31.48;;;21.08;;
25511;SDS011;13414;44.534;18.700;2023-02-15T12:13:25;31.15;;;20.48;;
25511;SDS011;13414;44.534;18.700;2023-02-15T12:15:53;29.27;;;20.85;;
25511;SDS011;13414;44.534;18.700;2023-02-15T12:18:31;32.17;;;20.55;;
25511;SDS011;13414;44.534;18.700;2023-02-15T12:21:03;31.10;;;20.25;;
25511;SDS011;13414;44.534;18.700;2023-02-15T12:23:34;28.50;;;19.90;;
25511;SDS011;13414;44.534;18.700;2023-02-15T12:26:10;26.90;;;18.10;;
25511;SDS011;13414;44.534;18.700;2023-02-15T12:28:38;29.88;;;20.85;;
25511;SDS011;13414;44.534;18.700;2023-02-15T12:31:10;26.00;;;18.40;;
25511;SDS011;13414;44.534;18.700;2023-02-15T12:33:47;28.90;;;20.13;;
25511;SDS011;13414;44.534;18.700;2023-02-15T12:36:17;29.92;;;20.02;;
25511;SDS011;13414;44.534;18.700;2023-02-15T12:41:31;29.13;;;19.58;;
25511;SDS011;13414;44.534;18.700;2023-02-15T12:44:04;26.75;;;16.85;;
25511;SDS011;13414;44.534;18.700;2023-02-15T12:46:33;20.65;;;15.70;;
25511;SDS011;13414;44.534;18.700;2023-02-15T12:49:10;20.83;;;15.70;;
25511;SDS011;13414;44.534;18.700;2023-02-15T12:51:47;26.00;;;18.65;;
25511;SDS011;13414;44.534;18.700;2023-02-15T12:54:17;22.30;;;15.45;;
25511;SDS011;13414;44.534;18.700;2023-02-15T12:57:12;25.08;;;16.27;;
25511;SDS011;13414;44.534;18.700;2023-02-15T12:59:52;27.42;;;17.13;;
25511;SDS011;13414;44.534;18.700;2023-02-15T13:02:22;22.38;;;15.90;;
25511;SDS011;13414;44.534;18.700;2023-02-15T13:04:55;21.98;;;15.48;;
25511;SDS011;13414;44.534;18.700;2023-02-15T13:07:25;20.38;;;14.95;;
25511;SDS011;13414;44.534;18.700;2023-02-15T13:09:57;19.65;;;15.15;;
25511;SDS011;13414;44.534;18.700;2023-02-15T13:12:27;27.45;;;19.83;;
25511;SDS011;13414;44.534;18.700;2023-02-15T13:14:57;22.48;;;16.80;;
25511;SDS011;13414;44.534;18.700;2023-02-15T13:17:28;21.02;;;15.85;;
25511;SDS011;13414;44.534;18.700;2023-02-15T13:20:00;27.85;;;16.73;;
25511;SDS011;13414;44.534;18.700;2023-02-15T13:22:32;30.05;;;16.20;;
25511;SDS011;13414;44.534;18.700;2023-02-15T13:25:09;38.22;;;23.23;;
25511;SDS011;13414;44.534;18.700;2023-02-15T13:27:46;25.73;;;16.65;;
25511;SDS011;13414;44.534;18.700;2023-02-15T13:30:19;22.13;;;15.82;;
25511;SDS011;13414;44.534;18.700;2023-02-15T13:32:52;25.10;;;16.73;;
25511;SDS011;13414;44.534;18.700;2023-02-15T13:35:23;28.92;;;20.48;;
25511;SDS011;13414;44.534;18.700;2023-02-15T13:38:02;24.15;;;16.83;;
25511;SDS011;13414;44.534;18.700;2023-02-15T13:40:40;26.60;;;17.25;;
25511;SDS011;13414;44.534;18.700;2023-02-15T13:43:18;23.10;;;16.27;;
25511;SDS011;13414;44.534;18.700;2023-02-15T13:45:58;21.65;;;15.52;;
25511;SDS011;13414;44.534;18.700;2023-02-15T13:48:40;22.80;;;16.65;;
25511;SDS011;13414;44.534;18.700;2023-02-15T13:51:14;23.10;;;15.82;;
25511;SDS011;13414;44.534;18.700;2023-02-15T13:53:52;22.10;;;17.08;;
25511;SDS011;13414;44.534;18.700;2023-02-15T13:56:35;21.20;;;14.98;;
25511;SDS011;13414;44.534;18.700;2023-02-15T13:59:22;24.88;;;17.52;;
25511;SDS011;13414;44.534;18.700;2023-02-15T14:02:26;28.90;;;17.85;;
25511;SDS011;13414;44.534;18.700;2023-02-15T14:05:33;25.52;;;16.98;;
25511;SDS011;13414;44.534;18.700;2023-02-15T14:08:14;28.85;;;18.02;;
25511;SDS011;13414;44.534;18.700;2023-02-15T14:10:56;30.33;;;21.83;;
25511;SDS011;13414;44.534;18.700;2023-02-15T14:16:41;25.67;;;17.15;;
25511;SDS011;13414;44.534;18.700;2023-02-15T14:19:19;27.88;;;19.33;;
25511;SDS011;13414;44.534;18.700;2023-02-15T14:21:53;27.05;;;18.83;;
25511;SDS011;13414;44.534;18.700;2023-02-15T14:24:29;28.33;;;17.20;;
25511;SDS011;13414;44.534;18.700;2023-02-15T14:27:08;24.92;;;17.25;;
25511;SDS011;13414;44.534;18.700;2023-02-15T14:29:48;27.63;;;17.17;;
25511;SDS011;13414;44.534;18.700;2023-02-15T14:32:20;26.23;;;18.17;;
25511;SDS011;13414;44.534;18.700;2023-02-15T14:34:54;28.23;;;19.40;;
25511;SDS011;13414;44.534;18.700;2023-02-15T14:37:27;27.33;;;19.83;;
25511;SDS011;13414;44.534;18.700;2023-02-15T14:40:08;31.60;;;23.65;;
25511;SDS011;13414;44.534;18.700;2023-02-15T14:43:01;38.83;;;22.15;;
25511;SDS011;13414;44.534;18.700;2023-02-15T14:45:35;30.17;;;20.33;;
25511;SDS011;13414;44.534;18.700;2023-02-15T14:48:10;27.05;;;18.65;;
25511;SDS011;13414;44.534;18.700;2023-02-15T14:50:43;29.13;;;19.60;;
25511;SDS011;13414;44.534;18.700;2023-02-15T14:59:12;32.95;;;21.42;;